Time;durP1;ratioP1;P1;durP2;ratioP2;P2;SDS_P1;SDS_P2;PMS_P1;PMS_P2;Temp;Humidity;BMP_temperature;BMP_pressure;BME280_temperature;BME280_humidity;BME280_pressure;Samples;Min_cycle;Max_cycle;Signal;HPM_P1;HPM_P2
2024/03/11 00:00:45;;;;;;;33.78;15.00;;;;;;;9.52;90.49;98973.19;5184030;28;20029;-72
2024/03/11 00:03:15;;;;;;;27.80;15.40;;;;;;;9.63;89.72;98963.00;5186671;28;20041;-73
2024/03/11 00:05:45;;;;;;;29.92;13.85;;;;;;;9.69;89.07;98964.44;5183492;28;20322;-73
2024/03/11 00:08:21;;;;;;;28.08;14.23;;;;;;;9.66;89.04;98962.00;5182078;28;20128;-73
2024/03/11 00:10:55;;;;;;;30.25;14.73;;;;;;;9.54;89.70;98967.91;5182076;28;20535;-73
2024/03/11 00:13:32;;;;;;;29.83;14.25;;;;;;;9.56;89.70;98966.06;5186791;28;20087;-72
2024/03/11 00:16:03;;;;;;;29.20;14.25;;;;;;;9.68;88.44;98960.97;5183626;28;20034;-73
2024/03/11 00:18:33;;;;;;;32.13;14.93;;;;;;;9.61;89.33;98967.47;5182905;28;20032;-73
2024/03/11 00:21:04;;;;;;;29.45;15.05;;;;;;;9.64;89.00;98977.72;5181359;28;20026;-72
2024/03/11 00:23:34;;;;;;;29.45;15.05;;;;;;;9.63;88.42;98977.84;5181303;28;20397;-72
2024/03/11 00:26:05;;;;;;;27.85;13.90;;;;;;;9.62;88.32;98978.75;5184015;28;20382;-72
2024/03/11 00:28:36;;;;;;;31.38;14.52;;;;;;;9.57;89.29;98980.78;5184842;28;20116;-73
2024/03/11 00:31:07;;;;;;;27.10;13.80;;;;;;;9.53;89.78;98987.94;5182432;28;20026;-73
2024/03/11 00:33:37;;;;;;;29.25;14.55;;;;;;;9.50;90.23;98985.50;5184903;28;20501;-72
2024/03/11 00:36:08;;;;;;;28.48;14.27;;;;;;;9.62;88.90;98983.97;5180923;28;20032;-73
2024/03/11 00:38:39;;;;;;;29.23;14.20;;;;;;;9.63;89.42;98999.53;5180708;28;20033;-73
2024/03/11 00:41:09;;;;;;;30.10;14.45;;;;;;;9.56;89.67;98989.53;5182991;28;20032;-73
2024/03/11 00:43:42;;;;;;;30.73;14.82;;;;;;;9.57;89.40;99001.63;5182138;28;20021;-73
2024/03/11 00:46:12;;;;;;;28.00;14.13;;;;;;;9.52;90.23;99008.88;5182110;28;20029;-73
2024/03/11 00:48:45;;;;;;;30.00;15.25;;;;;;;9.68;88.65;98997.47;5180885;28;20024;-72
2024/03/11 00:51:16;;;;;;;28.48;13.98;;;;;;;9.63;88.77;98996.09;5184164;28;20032;-73
2024/03/11 00:53:46;;;;;;;27.73;14.35;;;;;;;9.56;89.39;98999.94;5180147;28;20017;-72
2024/03/11 00:56:19;;;;;;;29.85;14.80;;;;;;;9.53;89.90;99006.19;5182893;28;20040;-73
2024/03/11 00:58:49;;;;;;;30.45;14.27;;;;;;;9.65;88.68;99002.88;5181054;28;20517;-73
2024/03/11 01:01:19;;;;;;;28.27;14.20;;;;;;;9.61;89.90;98997.91;5180949;28;20034;-73
2024/03/11 01:03:50;;;;;;;26.95;13.90;;;;;;;9.61;90.08;99013.56;5186776;28;20065;-73
2024/03/11 01:06:20;;;;;;;28.80;15.25;;;;;;;9.57;89.53;99006.84;5182969;28;20044;-73
2024/03/11 01:08:50;;;;;;;27.77;14.25;;;;;;;9.55;89.26;99006.09;5182258;28;20087;-73
2024/03/11 01:11:23;;;;;;;28.60;14.55;;;;;;;9.63;89.67;98999.53;5181618;28;20671;-73
2024/03/11 01:13:53;;;;;;;27.85;14.88;;;;;;;9.66;89.00;98995.91;5185867;28;20087;-72
2024/03/11 01:16:24;;;;;;;30.05;14.85;;;;;;;9.56;88.78;98994.75;5186999;28;20037;-72
2024/03/11 01:18:56;;;;;;;25.83;13.50;;;;;;;9.62;89.16;98995.22;5179715;28;20504;-73
2024/03/11 01:21:26;;;;;;;25.67;13.60;;;;;;;9.58;89.29;98995.50;5180575;28;20056;-71
2024/03/11 01:23:57;;;;;;;27.90;13.55;;;;;;;9.49;89.53;98989.03;5180595;28;20033;-73
2024/03/11 01:26:27;;;;;;;28.27;14.27;;;;;;;9.56;88.98;98990.38;5198028;28;20406;-72
2024/03/11 01:28:58;;;;;;;26.75;14.73;;;;;;;9.45;89.68;98999.75;5185480;28;20065;-73
2024/03/11 01:31:28;;;;;;;31.77;15.23;;;;;;;9.52;89.18;98995.84;5182199;28;20547;-73
2024/03/11 01:33:59;;;;;;;27.80;14.43;;;;;;;9.58;89.68;98998.09;5187836;28;20456;-73
2024/03/11 01:36:34;;;;;;;28.65;14.77;;;;;;;9.55;88.89;98990.44;5188163;28;20104;-71
2024/03/11 01:39:08;;;;;;;27.35;13.85;;;;;;;9.47;90.06;98996.09;5187311;28;20029;-73
2024/03/11 01:41:39;;;;;;;27.70;14.82;;;;;;;9.42;90.85;98999.88;5189043;28;20029;-72
2024/03/11 01:44:09;;;;;;;29.55;15.65;;;;;;;9.54;90.02;98996.59;5187083;28;20088;-73
2024/03/11 01:46:39;;;;;;;29.52;14.80;;;;;;;9.53;89.50;98997.53;5178742;28;20026;-72
2024/03/11 01:49:11;;;;;;;29.80;14.05;;;;;;;9.52;89.91;99001.88;5173373;28;20054;-72
2024/03/11 01:51:42;;;;;;;31.88;14.68;;;;;;;9.53;89.68;98989.69;5180678;28;20025;-73
2024/03/11 01:54:12;;;;;;;27.73;14.32;;;;;;;9.57;89.75;98985.97;5197023;28;20504;-72
2024/03/11 01:56:44;;;;;;;30.08;14.40;;;;;;;9.44;90.09;98990.22;5184200;28;20096;-71
2024/03/11 01:59:14;;;;;;;28.38;14.73;;;;;;;9.32;91.83;98990.91;5183149;28;20268;-72
2024/03/11 02:01:45;;;;;;;27.83;14.05;;;;;;;9.31;91.94;98989.22;5178326;28;20057;-71
2024/03/11 02:04:16;;;;;;;28.75;14.77;;;;;;;9.29;92.48;98985.88;5182625;28;20075;-73
2024/03/11 02:06:46;;;;;;;34.83;15.35;;;;;;;9.15;92.66;98976.19;5180841;28;20290;-72
2024/03/11 02:09:16;;;;;;;33.45;16.40;;;;;;;9.21;92.70;98982.84;5176379;28;20032;-73
2024/03/11 02:11:47;;;;;;;29.98;14.90;;;;;;;9.30;92.41;98987.56;5178983;28;20872;-72
2024/03/11 02:14:17;;;;;;;27.38;14.02;;;;;;;9.33;92.01;98987.38;5182412;28;20034;-72
2024/03/11 02:16:48;;;;;;;31.25;15.50;;;;;;;9.40;91.66;98981.75;5180214;28;20073;-73
2024/03/11 02:19:18;;;;;;;28.25;14.93;;;;;;;9.34;91.67;98978.63;5180503;28;20528;-72
2024/03/11 02:21:51;;;;;;;26.92;14.27;;;;;;;9.45;91.83;98974.50;5180651;28;20513;-72
2024/03/11 02:24:22;;;;;;;26.60;14.30;;;;;;;9.23;92.47;98975.78;5180887;28;20022;-71
2024/03/11 02:26:52;;;;;;;27.40;13.82;;;;;;;9.33;92.49;98977.78;5176144;28;20512;-73
2024/03/11 02:29:22;;;;;;;25.92;13.68;;;;;;;9.34;92.49;98978.63;5178431;28;20564;-73
2024/03/11 02:31:53;;;;;;;27.90;14.13;;;;;;;9.27;92.35;98977.28;5176818;28;20036;-72
2024/03/11 02:34:23;;;;;;;32.20;16.13;;;;;;;9.26;92.54;98976.44;5181967;28;20469;-73
2024/03/11 02:36:55;;;;;;;31.75;16.45;;;;;;;9.26;93.24;98978.19;5198849;28;20148;-73
2024/03/11 02:39:27;;;;;;;33.10;16.15;;;;;;;9.33;92.56;98977.78;5182239;28;20036;-73
2024/03/11 02:41:58;;;;;;;33.38;17.05;;;;;;;9.30;91.94;98988.38;5183563;28;20029;-73
2024/03/11 02:44:28;;;;;;;28.73;14.93;;;;;;;9.27;92.79;98983.34;5186532;28;20404;-72
2024/03/11 02:46:58;;;;;;;31.25;14.95;;;;;;;9.25;93.27;98989.56;5182530;28;20029;-73
2024/03/11 02:49:28;;;;;;;27.25;14.18;;;;;;;9.23;93.08;98983.59;5182723;28;20037;-73
2024/03/11 02:51:59;;;;;;;30.58;15.05;;;;;;;9.26;93.46;98991.22;5181985;28;20064;-73
2024/03/11 02:54:29;;;;;;;28.40;13.98;;;;;;;9.20;93.98;98983.78;5190142;28;20079;-73
2024/03/11 02:56:59;;;;;;;27.35;14.18;;;;;;;9.19;94.04;98987.31;5179369;28;20398;-73
2024/03/11 02:59:30;;;;;;;27.02;13.50;;;;;;;9.24;94.23;98978.31;5183606;28;20033;-72
2024/03/11 03:02:00;;;;;;;33.65;14.48;;;;;;;9.27;93.62;98972.91;5177638;28;20490;-73
2024/03/11 03:04:30;;;;;;;30.45;14.20;;;;;;;9.29;92.91;98965.03;5178562;28;20025;-73
2024/03/11 03:07:01;;;;;;;25.23;13.85;;;;;;;9.26;93.73;98966.03;5182919;28;20117;-72
2024/03/11 03:09:31;;;;;;;28.38;14.13;;;;;;;9.34;93.06;98963.00;5183938;28;20547;-72
2024/03/11 03:12:02;;;;;;;28.17;14.63;;;;;;;9.37;93.09;98963.66;5177129;28;20034;-73
2024/03/11 03:14:33;;;;;;;28.70;13.63;;;;;;;9.18;93.79;98956.97;5177617;28;20050;-73
2024/03/11 03:17:04;;;;;;;23.92;12.82;;;;;;;9.14;94.02;98942.41;5177091;28;20108;-72
2024/03/11 03:19:34;;;;;;;28.77;14.60;;;;;;;9.14;94.04;98945.03;5181315;28;20036;-73
2024/03/11 03:22:07;;;;;;;29.35;14.55;;;;;;;8.99;94.75;98958.03;5181311;28;20059;-73
2024/03/11 03:24:37;;;;;;;28.27;14.20;;;;;;;9.02;94.93;98953.50;5185258;28;20026;-72
2024/03/11 03:27:08;;;;;;;28.92;14.68;;;;;;;8.90;95.34;98951.56;5179708;28;20025;-72
2024/03/11 03:29:40;;;;;;;32.55;13.75;;;;;;;8.82;96.12;98965.94;5185614;28;20079;-73
2024/03/11 03:32:10;;;;;;;26.48;13.75;;;;;;;8.84;96.13;98957.13;5183198;28;20032;-73
2024/03/11 03:34:40;;;;;;;28.65;14.18;;;;;;;8.89;96.54;98962.09;5194786;28;20017;-73
2024/03/11 03:37:10;;;;;;;26.83;13.82;;;;;;;8.77;97.19;98965.34;5190453;28;20121;-73
2024/03/11 03:39:41;;;;;;;28.63;14.73;;;;;;;8.71;98.06;98976.13;5182237;28;20022;-73
2024/03/11 03:42:11;;;;;;;29.05;14.45;;;;;;;8.66;99.04;98978.94;5185651;28;20488;-73
2024/03/11 03:44:42;;;;;;;30.38;14.52;;;;;;;8.53;100.00;98977.09;5182655;28;20477;-73
2024/03/11 03:47:12;;;;;;;30.58;14.70;;;;;;;8.62;99.90;98972.22;5186395;28;20026;-73
2024/03/11 03:49:42;;;;;;;26.17;13.52;;;;;;;8.71;98.92;98982.16;5178821;28;20056;-71
2024/03/11 03:52:12;;;;;;;26.17;14.20;;;;;;;8.54;99.37;98981.38;5179559;28;20033;-73
2024/03/11 03:54:43;;;;;;;28.70;14.60;;;;;;;8.58;99.90;98980.28;5186570;28;20087;-73
2024/03/11 03:57:15;;;;;;;29.70;14.95;;;;;;;8.51;100.00;98982.38;5182385;28;20481;-73
2024/03/11 03:59:45;;;;;;;29.38;15.30;;;;;;;8.60;99.68;98984.50;5185099;28;20025;-71
2024/03/11 04:02:16;;;;;;;30.52;14.68;;;;;;;8.60;99.24;98984.50;5185841;28;20605;-72
2024/03/11 04:04:47;;;;;;;27.83;13.73;;;;;;;8.59;100.00;98987.16;5180455;28;20028;-72
2024/03/11 04:07:17;;;;;;;30.30;14.63;;;;;;;8.71;99.08;98992.56;5181409;28;20029;-73
2024/03/11 04:09:47;;;;;;;28.85;14.50;;;;;;;8.70;99.19;99001.28;5184727;28;20037;-73
2024/03/11 04:12:20;;;;;;;30.13;14.68;;;;;;;8.82;98.92;98998.03;5182956;28;20063;-73
2024/03/11 04:14:51;;;;;;;27.90;14.15;;;;;;;8.88;97.27;98996.88;5193654;28;20319;-72
2024/03/11 04:17:22;;;;;;;31.45;15.00;;;;;;;8.87;96.85;98996.03;5184626;28;20041;-73
2024/03/11 04:19:52;;;;;;;30.23;14.45;;;;;;;8.82;97.52;99000.66;5179327;28;20489;-71
2024/03/11 04:22:22;;;;;;;27.10;13.80;;;;;;;8.80;97.82;99002.50;5185738;28;20040;-73
2024/03/11 04:24:52;;;;;;;28.58;14.43;;;;;;;8.81;97.46;98993.75;5183718;28;20057;-73
2024/03/11 04:27:23;;;;;;;26.20;14.35;;;;;;;8.90;97.23;98977.63;5181546;28;20028;-73
2024/03/11 04:29:53;;;;;;;27.35;13.70;;;;;;;8.89;96.19;98975.94;5179677;28;20507;-72
2024/03/11 04:32:24;;;;;;;29.05;13.75;;;;;;;8.86;96.39;98991.75;5181582;28;20030;-73
2024/03/11 04:34:54;;;;;;;29.38;14.15;;;;;;;8.90;96.21;98995.03;5187102;28;20513;-72
2024/03/11 04:37:24;;;;;;;27.77;14.05;;;;;;;8.84;96.58;98993.59;5177889;28;20409;-72
2024/03/11 04:39:55;;;;;;;28.45;14.32;;;;;;;8.73;96.77;98985.50;5188075;28;20029;-72
2024/03/11 04:42:25;;;;;;;29.85;13.40;;;;;;;8.89;96.64;98981.16;5182755;28;20040;-72
2024/03/11 04:44:55;;;;;;;27.23;14.02;;;;;;;8.90;96.11;98982.84;5184506;28;20033;-72
2024/03/11 04:47:25;;;;;;;28.10;14.02;;;;;;;8.91;95.87;98968.06;5182281;28;20409;-72
2024/03/11 04:49:56;;;;;;;25.10;13.43;;;;;;;8.86;96.35;98965.69;5182074;28;20033;-72
2024/03/11 04:52:26;;;;;;;30.48;13.85;;;;;;;8.86;96.88;98970.09;5181088;28;20021;-72
2024/03/11 04:54:57;;;;;;;28.85;14.38;;;;;;;8.81;97.00;98977.28;5163385;28;20038;-73
2024/03/11 04:57:27;;;;;;;26.27;14.32;;;;;;;8.71;98.11;98991.72;5177738;28;20022;-73
2024/03/11 04:59:57;;;;;;;29.67;14.43;;;;;;;8.59;99.37;98992.38;5184858;28;20084;-73
2024/03/11 05:02:28;;;;;;;27.83;13.93;;;;;;;8.41;100.00;98988.97;5181457;28;20032;-73
2024/03/11 05:04:58;;;;;;;28.83;14.85;;;;;;;8.49;100.00;98983.34;5181810;28;20080;-73
2024/03/11 05:07:28;;;;;;;36.08;15.25;;;;;;;8.47;100.00;98988.66;5180469;28;20029;-72
2024/03/11 05:09:59;;;;;;;29.00;14.25;;;;;;;8.47;100.00;98998.22;5181092;28;20033;-69
2024/03/11 05:12:29;;;;;;;31.70;14.77;;;;;;;8.50;100.00;98995.44;5178092;28;20026;-72
2024/03/11 05:15:00;;;;;;;28.30;14.15;;;;;;;8.51;100.00;99000.59;5182049;28;20040;-70
2024/03/11 05:17:31;;;;;;;30.15;15.02;;;;;;;8.46;100.00;99002.59;5176158;28;20272;-72
2024/03/11 05:20:06;;;;;;;32.53;14.60;;;;;;;8.54;100.00;98997.00;5180595;28;20108;-71
2024/03/11 05:22:36;;;;;;;30.55;14.95;;;;;;;8.64;99.00;98993.81;5180884;28;20056;-72
2024/03/11 05:25:08;;;;;;;29.25;14.77;;;;;;;8.63;98.61;98989.53;5185301;28;20061;-72
2024/03/11 05:27:39;;;;;;;27.08;13.57;;;;;;;8.54;99.88;98977.00;5181695;28;20032;-72
2024/03/11 05:30:10;;;;;;;32.80;15.43;;;;;;;8.71;99.09;98976.13;5177874;28;20034;-72
2024/03/11 05:32:40;;;;;;;29.27;14.75;;;;;;;8.59;100.00;98980.19;5180208;28;20017;-72
2024/03/11 05:35:11;;;;;;;31.88;14.95;;;;;;;8.68;99.24;98989.28;5185548;28;20105;-72
2024/03/11 05:37:41;;;;;;;33.72;15.93;;;;;;;8.41;100.00;99008.97;5183005;28;20492;-72
2024/03/11 05:40:12;;;;;;;30.20;14.98;;;;;;;8.34;100.00;99015.38;5176175;28;20025;-72
2024/03/11 05:42:43;;;;;;;33.50;15.10;;;;;;;8.37;100.00;99015.25;5181428;28;20029;-72
2024/03/11 05:45:13;;;;;;;28.10;14.98;;;;;;;8.41;100.00;99029.78;5182594;28;20022;-72
2024/03/11 05:47:45;;;;;;;31.40;16.10;;;;;;;8.43;100.00;99035.75;5181150;28;20503;-72
2024/03/11 05:50:16;;;;;;;27.85;14.23;;;;;;;8.47;100.00;99035.50;5179360;28;20021;-72
2024/03/11 05:52:48;;;;;;;30.77;14.52;;;;;;;8.46;100.00;99035.59;5184824;28;259473;-72
2024/03/11 05:55:21;;;;;;;29.95;14.48;;;;;;;8.53;100.00;99050.81;5188548;28;20068;-72
2024/03/11 05:57:52;;;;;;;29.33;14.52;;;;;;;8.54;100.00;99057.69;5185626;28;20029;-69
2024/03/11 06:00:22;;;;;;;27.35;14.18;;;;;;;8.52;100.00;99053.50;5182102;28;20508;-72
2024/03/11 06:02:52;;;;;;;25.85;13.90;;;;;;;8.47;100.00;99051.13;5178360;28;20026;-72
2024/03/11 06:05:23;;;;;;;32.25;14.23;;;;;;;8.57;100.00;99060.13;5185114;28;20505;-71
2024/03/11 06:07:53;;;;;;;28.42;14.45;;;;;;;8.44;99.95;99055.66;5181464;28;20022;-70
2024/03/11 06:10:23;;;;;;;27.80;14.13;;;;;;;8.37;100.00;99060.31;5180317;28;20674;-72
2024/03/11 06:12:53;;;;;;;27.20;14.05;;;;;;;8.33;100.00;99083.97;5181497;28;20060;-73
2024/03/11 06:15:27;;;;;;;26.70;13.68;;;;;;;8.34;100.00;99086.50;5186418;28;20037;-71
2024/03/11 06:17:57;;;;;;;25.20;13.65;;;;;;;8.38;100.00;99087.19;5179635;28;20034;-72
2024/03/11 06:20:27;;;;;;;25.83;13.75;;;;;;;8.42;100.00;99078.31;5185431;28;20086;-73
2024/03/11 06:22:59;;;;;;;29.75;14.55;;;;;;;8.27;100.00;99082.53;5182038;28;20064;-72
2024/03/11 06:25:30;;;;;;;25.23;13.40;;;;;;;8.32;100.00;99083.16;5178497;28;20026;-73
2024/03/11 06:28:01;;;;;;;28.10;14.45;;;;;;;8.25;100.00;99078.31;5181351;28;20064;-72
2024/03/11 06:30:33;;;;;;;25.80;13.68;;;;;;;8.33;100.00;99089.16;5178355;28;20026;-73
2024/03/11 06:33:09;;;;;;;29.73;14.50;;;;;;;8.32;100.00;99083.16;5178531;28;20026;-72
2024/03/11 06:35:39;;;;;;;30.33;14.85;;;;;;;8.35;100.00;99090.78;5181716;28;20028;-73
2024/03/11 06:38:10;;;;;;;27.98;14.48;;;;;;;8.45;100.00;99086.81;5180975;28;20038;-72
2024/03/11 06:40:40;;;;;;;26.25;13.60;;;;;;;8.55;100.00;99089.78;5183045;28;20028;-72
2024/03/11 06:43:10;;;;;;;25.65;13.60;;;;;;;8.60;100.00;99093.84;5185124;28;20026;-73
2024/03/11 06:45:41;;;;;;;26.92;13.68;;;;;;;8.63;100.00;99098.91;5183204;28;21985;-73
2024/03/11 06:48:12;;;;;;;32.20;14.75;;;;;;;8.59;100.00;99102.56;5180967;28;20721;-72
2024/03/11 06:50:42;;;;;;;30.95;14.27;;;;;;;8.59;100.00;99092.13;5175814;28;20076;-72
2024/03/11 06:53:13;;;;;;;27.52;14.05;;;;;;;8.68;100.00;99096.03;5176241;28;20440;-71
2024/03/11 06:55:43;;;;;;;31.23;14.63;;;;;;;8.79;100.00;99089.38;5212793;23;20374;-72
2024/03/11 06:58:14;;;;;;;25.98;13.40;;;;;;;8.84;100.00;99103.00;5203290;28;20044;-72
2024/03/11 07:00:44;;;;;;;28.55;14.88;;;;;;;8.83;100.00;99106.53;5192394;28;20033;-72
2024/03/11 07:03:15;;;;;;;28.60;13.88;;;;;;;8.85;100.00;99114.22;5192010;28;20416;-72
2024/03/11 07:05:45;;;;;;;27.90;13.93;;;;;;;8.89;100.00;99116.59;5192343;28;20034;-72
2024/03/11 07:08:15;;;;;;;27.80;14.10;;;;;;;8.91;100.00;99124.34;5197946;28;20083;-72
2024/03/11 07:10:45;;;;;;;23.98;13.48;;;;;;;8.94;100.00;99130.25;5196191;28;20071;-72
2024/03/11 07:13:16;;;;;;;27.20;12.73;;;;;;;8.88;100.00;99134.94;5192336;28;20022;-72
2024/03/11 07:15:47;;;;;;;27.67;13.38;;;;;;;8.84;100.00;99136.00;5195340;28;20200;-72
2024/03/11 07:18:17;;;;;;;27.20;13.55;;;;;;;8.89;100.00;99147.88;5196088;28;20034;-72
2024/03/11 07:20:48;;;;;;;26.48;13.43;;;;;;;8.92;100.00;99158.13;5203409;28;20648;-72
2024/03/11 07:23:19;;;;;;;26.60;13.45;;;;;;;8.87;100.00;99154.91;5198300;28;20048;-71
2024/03/11 07:25:49;;;;;;;25.00;13.95;;;;;;;8.75;100.00;99160.75;5195659;28;20621;-72
2024/03/11 07:28:20;;;;;;;28.00;13.93;;;;;;;8.79;100.00;99167.50;5203913;28;20060;-72
2024/03/11 07:30:51;;;;;;;27.92;14.82;;;;;;;8.75;100.00;99160.75;5198795;28;20068;-72
2024/03/11 07:33:22;;;;;;;24.83;14.57;;;;;;;8.84;100.00;99164.66;5196838;28;20024;-72
2024/03/11 07:35:53;;;;;;;27.23;14.95;;;;;;;8.84;100.00;99164.66;5190615;28;20558;-72
2024/03/11 07:38:23;;;;;;;28.10;14.88;;;;;;;8.79;100.00;99171.88;5191811;28;21490;-72
2024/03/11 07:40:54;;;;;;;28.13;14.60;;;;;;;8.80;100.00;99179.59;5195554;28;20529;-72
2024/03/11 07:43:24;;;;;;;27.65;15.15;;;;;;;8.90;100.00;99179.97;5194728;28;20034;-72
2024/03/11 07:45:54;;;;;;;25.35;13.43;;;;;;;8.85;100.00;99185.41;5199608;28;20635;-72
2024/03/11 07:48:24;;;;;;;26.65;13.35;;;;;;;8.84;100.00;99194.16;5195143;28;20041;-72
2024/03/11 07:50:55;;;;;;;28.75;14.85;;;;;;;8.82;100.00;99188.19;5202638;28;20152;-72
2024/03/11 07:53:25;;;;;;;28.75;14.25;;;;;;;8.99;100.00;99188.16;5200542;28;20025;-72
2024/03/11 07:55:55;;;;;;;29.88;14.73;;;;;;;9.00;100.00;99192.47;5195606;28;20035;-72
2024/03/11 07:58:26;;;;;;;27.48;13.73;;;;;;;9.03;100.00;99204.50;5206873;28;20107;-72
2024/03/11 08:00:59;;;;;;;27.48;13.93;;;;;;;9.09;100.00;99207.59;5198400;28;20611;-72
2024/03/11 08:03:29;;;;;;;28.42;14.45;;;;;;;9.01;100.00;99216.72;5208844;28;20106;-71
2024/03/11 08:06:00;;;;;;;27.48;13.93;;;;;;;9.09;100.00;99212.81;5202510;28;20572;-72
2024/03/11 08:08:31;;;;;;;26.73;14.02;;;;;;;9.07;100.00;99208.63;5207427;28;20110;-72
2024/03/11 08:11:02;;;;;;;27.88;14.65;;;;;;;9.14;100.00;99206.44;5202478;28;20167;-72
2024/03/11 08:13:32;;;;;;;30.05;14.43;;;;;;;9.18;100.00;99202.75;5205322;28;20389;-72
2024/03/11 08:16:03;;;;;;;29.90;14.68;;;;;;;9.17;100.00;99208.06;5202508;28;20036;-72
2024/03/11 08:18:33;;;;;;;28.77;15.05;;;;;;;9.23;100.00;99210.34;5204411;28;20454;-72
2024/03/11 08:21:04;;;;;;;28.70;14.82;;;;;;;9.33;100.00;99215.00;5205632;28;20420;-72
2024/03/11 08:23:34;;;;;;;27.67;15.13;;;;;;;9.47;100.00;99215.13;5204724;28;20167;-72
2024/03/11 08:26:07;;;;;;;32.08;15.70;;;;;;;9.42;100.00;99216.28;5201072;28;20034;-72
2024/03/11 08:28:39;;;;;;;33.28;14.70;;;;;;;9.57;100.00;99229.38;5201208;28;20088;-72
2024/03/11 08:31:10;;;;;;;27.70;14.55;;;;;;;9.44;100.00;99232.69;5208697;28;20417;-71
2024/03/11 08:33:40;;;;;;;26.00;15.25;;;;;;;9.51;100.00;99226.25;5204718;28;20029;-72
2024/03/11 08:36:10;;;;;;;30.27;15.07;;;;;;;9.62;100.00;99227.34;5205179;28;20022;-72
2024/03/11 08:38:40;;;;;;;27.60;15.35;;;;;;;9.76;100.00;99224.00;5204560;28;20020;-72
2024/03/11 08:41:14;;;;;;;26.35;14.75;;;;;;;10.02;100.00;99223.47;5201168;28;20056;-72
2024/03/11 08:43:44;;;;;;;29.10;14.82;;;;;;;10.26;100.00;99216.88;5205044;28;20576;-72
2024/03/11 08:46:16;;;;;;;27.27;14.27;;;;;;;10.50;100.00;99211.13;5202743;28;20041;-72
2024/03/11 08:48:47;;;;;;;27.15;14.93;;;;;;;10.80;100.00;99214.59;5202367;28;20017;-71
2024/03/11 08:51:19;;;;;;;29.30;15.65;;;;;;;11.33;98.23;99210.50;5204434;28;20083;-73
2024/03/11 08:53:49;;;;;;;27.08;14.60;;;;;;;11.83;94.35;99213.50;5201787;28;20543;-72
2024/03/11 08:56:21;;;;;;;22.30;13.20;;;;;;;12.09;89.90;99211.88;5201593;28;20040;-73
2024/03/11 08:58:51;;;;;;;28.30;14.68;;;;;;;12.30;91.11;99206.09;5206946;28;20037;-73
2024/03/11 09:01:22;;;;;;;26.55;13.98;;;;;;;12.36;88.71;99200.47;5204481;28;20032;-72
2024/03/11 09:03:52;;;;;;;24.02;13.38;;;;;;;12.42;87.41;99205.31;5201465;28;20040;-72
2024/03/11 09:06:23;;;;;;;27.48;14.65;;;;;;;12.54;86.94;99212.38;5209034;28;20561;-73
2024/03/11 09:08:53;;;;;;;24.95;13.55;;;;;;;12.65;87.80;99217.72;5202231;28;20021;-72
2024/03/11 09:11:24;;;;;;;26.55;13.95;;;;;;;12.78;87.12;99218.63;5207170;28;20606;-72
2024/03/11 09:13:54;;;;;;;27.35;14.32;;;;;;;12.30;86.70;99227.03;5201591;28;20072;-72
2024/03/11 09:16:27;;;;;;;24.13;13.13;;;;;;;12.43;87.16;99233.19;5202812;28;20182;-72
2024/03/11 09:18:57;;;;;;;24.50;13.85;;;;;;;12.60;87.47;99240.78;5204529;28;20033;-73
2024/03/11 09:21:27;;;;;;;27.27;14.05;;;;;;;12.63;86.12;99245.84;5204717;28;20072;-72
2024/03/11 09:23:57;;;;;;;26.38;14.35;;;;;;;12.69;87.38;99247.22;5217117;28;20041;-72
2024/03/11 09:26:29;;;;;;;22.38;13.88;;;;;;;12.80;86.02;99244.75;5203721;28;20144;-71
2024/03/11 09:28:59;;;;;;;24.10;13.65;;;;;;;13.05;85.14;99253.56;5200609;28;20536;-72
2024/03/11 09:31:30;;;;;;;25.45;14.18;;;;;;;13.22;84.81;99256.72;5204431;28;20060;-73
2024/03/11 09:34:02;;;;;;;24.50;13.88;;;;;;;13.29;84.51;99265.00;5206399;28;20021;-72
2024/03/11 09:36:34;;;;;;;25.13;14.00;;;;;;;13.48;84.25;99265.44;5203174;28;20021;-73
2024/03/11 09:39:06;;;;;;;24.98;13.57;;;;;;;13.36;84.36;99268.88;5197044;28;20036;-71
2024/03/11 09:41:44;;;;;;;26.48;14.07;;;;;;;13.56;83.44;99260.53;5197552;28;20025;-73
2024/03/11 09:44:18;;;;;;;19.92;12.65;;;;;;;13.57;84.00;99268.28;5202411;28;20025;-72
2024/03/11 09:46:51;;;;;;;20.33;12.27;;;;;;;13.58;83.30;99272.59;5200950;28;20038;-72
2024/03/11 09:49:24;;;;;;;21.83;12.55;;;;;;;13.69;82.08;99283.19;5200628;28;20020;-72
2024/03/11 09:52:01;;;;;;;22.08;13.10;;;;;;;13.64;83.54;99284.47;5200619;28;20405;-72
2024/03/11 09:54:32;;;;;;;22.65;13.50;;;;;;;13.57;83.54;99283.22;5198793;28;20032;-72
2024/03/11 09:57:06;;;;;;;26.48;13.70;;;;;;;13.13;84.48;99298.47;5201170;28;20112;-72
2024/03/11 09:59:41;;;;;;;22.60;12.32;;;;;;;13.51;85.24;99300.22;5199612;28;20029;-72
2024/03/11 10:02:19;;;;;;;19.70;10.68;;;;;;;13.45;83.43;99289.28;5201372;28;20424;-71
2024/03/11 10:04:53;;;;;;;18.25;10.30;;;;;;;13.54;83.54;99289.50;5201530;28;20150;-72
2024/03/11 10:07:25;;;;;;;17.95;9.93;;;;;;;13.63;81.26;99290.66;5202710;28;20322;-72
2024/03/11 10:09:56;;;;;;;20.08;10.27;;;;;;;13.87;82.31;99286.31;5200886;28;20071;-72
2024/03/11 10:12:31;;;;;;;14.20;9.55;;;;;;;14.21;81.67;99281.28;5203282;28;20033;-72
2024/03/11 10:15:02;;;;;;;10.48;6.18;;;;;;;14.36;78.26;99289.84;5199599;28;20281;-72
2024/03/11 10:17:34;;;;;;;10.30;6.32;;;;;;;14.49;77.84;99280.16;5220830;28;20063;-72
2024/03/11 10:20:14;;;;;;;7.95;4.63;;;;;;;14.58;76.76;99296.09;5204236;28;20034;-73
2024/03/11 10:22:47;;;;;;;4.80;3.00;;;;;;;14.38;74.87;99298.47;5199082;28;20032;-72
2024/03/11 10:25:27;;;;;;;7.72;4.70;;;;;;;14.46;76.37;99310.13;5205721;28;20055;-72
2024/03/11 10:27:58;;;;;;;7.53;3.95;;;;;;;14.41;75.61;99308.78;5200149;28;20033;-72
2024/03/11 10:30:30;;;;;;;7.05;3.92;;;;;;;14.23;77.20;99317.97;5201094;28;20950;-72
2024/03/11 10:33:02;;;;;;;6.45;4.07;;;;;;;14.05;76.72;99316.59;5198160;28;20455;-73
2024/03/11 10:35:35;;;;;;;5.85;3.50;;;;;;;13.93;76.52;99325.31;5194414;28;20037;-72
2024/03/11 10:38:11;;;;;;;5.57;3.47;;;;;;;14.15;77.39;99322.88;5197624;28;20033;-72
2024/03/11 10:40:45;;;;;;;3.53;2.42;;;;;;;14.09;75.04;99324.13;5200623;28;20029;-72
2024/03/11 10:43:24;;;;;;;3.67;2.28;;;;;;;14.13;75.58;99325.63;5199977;28;20148;-72
2024/03/11 10:45:58;;;;;;;3.80;2.20;;;;;;;14.13;74.52;99330.03;5201399;28;20459;-72
2024/03/11 10:48:30;;;;;;;3.30;2.00;;;;;;;14.46;75.02;99332.94;5201106;28;20027;-72
2024/03/11 10:51:02;;;;;;;3.40;2.17;;;;;;;14.72;76.09;99330.13;5198021;28;20033;-73
2024/03/11 10:53:34;;;;;;;3.95;2.40;;;;;;;15.00;73.05;99328.00;5205744;28;20039;-72
2024/03/11 10:56:10;;;;;;;4.15;2.55;;;;;;;15.19;72.84;99327.50;5203032;28;20025;-72
2024/03/11 10:58:44;;;;;;;4.28;2.10;;;;;;;15.18;72.49;99329.28;5202271;28;20537;-72
2024/03/11 11:01:19;;;;;;;5.03;2.13;;;;;;;15.19;73.19;99335.41;5201146;28;20551;-72
2024/03/11 11:03:52;;;;;;;3.30;1.92;;;;;;;15.00;72.55;99335.09;5203067;28;20025;-72
2024/03/11 11:06:27;;;;;;;3.10;1.80;;;;;;;15.02;72.74;99344.53;5203599;28;20033;-71
2024/03/11 11:08:57;;;;;;;2.67;1.90;;;;;;;15.52;73.06;99344.28;5200164;28;20029;-73
2024/03/11 11:11:28;;;;;;;4.15;2.17;;;;;;;16.01;71.72;99344.03;5202150;28;20290;-72
2024/03/11 11:13:58;;;;;;;3.55;2.13;;;;;;;15.68;69.98;99344.81;5200795;28;20034;-72
2024/03/11 11:16:29;;;;;;;3.60;2.00;;;;;;;15.90;69.36;99336.94;5205862;28;20083;-72
2024/03/11 11:19:00;;;;;;;3.05;1.67;;;;;;;16.14;68.76;99345.59;5201954;28;20033;-71
2024/03/11 11:21:31;;;;;;;3.80;1.98;;;;;;;15.97;68.94;99335.53;5217935;28;20571;-73
2024/03/11 11:24:29;;;;;;;3.22;1.90;;;;;;;16.18;70.43;99339.13;5201662;28;20042;-73
2024/03/11 11:27:05;;;;;;;2.15;1.50;;;;;;;16.25;68.25;99339.50;5200188;28;20049;-72
2024/03/11 11:29:36;;;;;;;2.53;1.60;;;;;;;16.15;68.65;99339.38;5200434;28;20037;-72
2024/03/11 11:32:08;;;;;;;2.28;1.20;;;;;;;15.98;68.88;99346.88;5195702;28;20389;-73
2024/03/11 11:34:44;;;;;;;2.60;1.30;;;;;;;15.76;68.72;99350.34;5197098;28;20068;-72
2024/03/11 11:37:31;;;;;;;1.75;1.20;;;;;;;15.44;70.08;99349.31;5200087;28;20485;-71
2024/03/11 11:40:31;;;;;;;0.50;0.40;;;;;;;15.02;68.14;99357.69;5208531;28;20065;-72